sensor_id;sensor_type;location;lat;lon;timestamp;pressure;altitude;pressure_sealevel;temperature;humidity
64115;BME280;62188;35.640;139.748;2023-01-26T00:00:20;101814.40;;;12.09;14.25
64115;BME280;62188;35.640;139.748;2023-01-26T00:02:45;101820.36;;;12.58;14.52
64115;BME280;62188;35.640;139.748;2023-01-26T00:05:11;101817.87;;;12.32;15.28
64115;BME280;62188;35.640;139.748;2023-01-26T00:07:37;101820.93;;;12.92;14.73
64115;BME280;62188;35.640;139.748;2023-01-26T00:10:03;101813.70;;;12.93;14.48
64115;BME280;62188;35.640;139.748;2023-01-26T00:12:28;101802.85;;;13.06;14.72
64115;BME280;62188;35.640;139.748;2023-01-26T00:14:54;101810.25;;;12.63;15.23
64115;BME280;62188;35.640;139.748;2023-01-26T00:17:20;101813.55;;;12.71;15.18
64115;BME280;62188;35.640;139.748;2023-01-26T00:19:46;101816.70;;;12.39;15.68
64115;BME280;62188;35.640;139.748;2023-01-26T00:22:11;101823.49;;;12.32;15.89
64115;BME280;62188;35.640;139.748;2023-01-26T00:24:37;101823.60;;;12.84;16.11
64115;BME280;62188;35.640;139.748;2023-01-26T00:27:03;101825.49;;;13.06;16.43
64115;BME280;62188;35.640;139.748;2023-01-26T00:29:29;101819.03;;;12.90;16.28
64115;BME280;62188;35.640;139.748;2023-01-26T00:31:54;101815.60;;;12.88;16.53
64115;BME280;62188;35.640;139.748;2023-01-26T00:34:20;101822.56;;;13.16;16.74
64115;BME280;62188;35.640;139.748;2023-01-26T00:36:46;101824.35;;;13.34;16.55
64115;BME280;62188;35.640;139.748;2023-01-26T00:39:11;101826.27;;;13.24;16.61
64115;BME280;62188;35.640;139.748;2023-01-26T00:41:38;101812.66;;;13.25;16.61
64115;BME280;62188;35.640;139.748;2023-01-26T00:46:29;101803.91;;;13.54;16.92
64115;BME280;62188;35.640;139.748;2023-01-26T00:48:55;101799.74;;;13.48;16.81
64115;BME280;62188;35.640;139.748;2023-01-26T00:51:20;101792.35;;;13.61;16.70
64115;BME280;62188;35.640;139.748;2023-01-26T00:53:46;101784.90;;;13.05;17.07
64115;BME280;62188;35.640;139.748;2023-01-26T00:56:11;101790.31;;;13.15;17.23
64115;BME280;62188;35.640;139.748;2023-01-26T00:58:37;101789.18;;;12.82;17.48
64115;BME280;62188;35.640;139.748;2023-01-26T01:01:03;101773.56;;;12.70;17.39
64115;BME280;62188;35.640;139.748;2023-01-26T01:03:29;101759.96;;;12.51;17.72
64115;BME280;62188;35.640;139.748;2023-01-26T01:05:55;101768.34;;;12.71;17.56
64115;BME280;62188;35.640;139.748;2023-01-26T01:08:20;101763.08;;;13.07;17.61
64115;BME280;62188;35.640;139.748;2023-01-26T01:10:46;101759.74;;;13.43;17.55
64115;BME280;62188;35.640;139.748;2023-01-26T01:13:12;101756.21;;;13.82;17.70
64115;BME280;62188;35.640;139.748;2023-01-26T01:15:39;101750.69;;;13.91;17.57
64115;BME280;62188;35.640;139.748;2023-01-26T01:18:03;101741.83;;;13.50;17.62
64115;BME280;62188;35.640;139.748;2023-01-26T01:20:29;101732.28;;;13.79;17.73
64115;BME280;62188;35.640;139.748;2023-01-26T01:22:55;101726.24;;;13.83;17.70
64115;BME280;62188;35.640;139.748;2023-01-26T01:25:21;101719.23;;;14.41;17.63
64115;BME280;62188;35.640;139.748;2023-01-26T01:27:46;101714.50;;;14.69;17.29
64115;BME280;62188;35.640;139.748;2023-01-26T01:30:13;101709.44;;;14.46;17.40
64115;BME280;62188;35.640;139.748;2023-01-26T01:32:38;101705.94;;;14.57;17.54
64115;BME280;62188;35.640;139.748;2023-01-26T01:35:04;101705.90;;;14.81;17.47
64115;BME280;62188;35.640;139.748;2023-01-26T01:37:29;101707.46;;;15.22;17.15
64115;BME280;62188;35.640;139.748;2023-01-26T01:39:55;101705.76;;;14.70;16.94
64115;BME280;62188;35.640;139.748;2023-01-26T01:42:21;101699.99;;;14.55;17.31
64115;BME280;62188;35.640;139.748;2023-01-26T01:44:47;101693.01;;;14.74;17.61
64115;BME280;62188;35.640;139.748;2023-01-26T01:47:15;101687.58;;;15.13;17.78
64115;BME280;62188;35.640;139.748;2023-01-26T01:49:41;101675.85;;;15.69;17.33
64115;BME280;62188;35.640;139.748;2023-01-26T01:52:08;101665.32;;;16.36;16.89
64115;BME280;62188;35.640;139.748;2023-01-26T01:54:32;101660.18;;;16.08;16.16
64115;BME280;62188;35.640;139.748;2023-01-26T01:56:57;101663.21;;;16.47;16.03
64115;BME280;62188;35.640;139.748;2023-01-26T01:59:21;101660.47;;;16.23;15.41
64115;BME280;62188;35.640;139.748;2023-01-26T02:01:46;101654.94;;;16.30;15.42
64115;BME280;62188;35.640;139.748;2023-01-26T02:04:11;101648.59;;;15.93;15.40
64115;BME280;62188;35.640;139.748;2023-01-26T02:06:42;101636.20;;;15.71;15.36
64115;BME280;62188;35.640;139.748;2023-01-26T02:09:04;101622.69;;;15.53;15.45
64115;BME280;62188;35.640;139.748;2023-01-26T02:11:35;101608.70;;;15.11;15.90
64115;BME280;62188;35.640;139.748;2023-01-26T02:13:54;101603.23;;;15.03;16.29
64115;BME280;62188;35.640;139.748;2023-01-26T02:16:20;101607.25;;;14.97;16.20
64115;BME280;62188;35.640;139.748;2023-01-26T02:18:46;101606.33;;;15.13;16.39
64115;BME280;62188;35.640;139.748;2023-01-26T02:21:12;101610.56;;;15.91;16.31
64115;BME280;62188;35.640;139.748;2023-01-26T02:23:47;101598.92;;;15.52;15.99
64115;BME280;62188;35.640;139.748;2023-01-26T02:26:08;101584.50;;;15.92;15.58
64115;BME280;62188;35.640;139.748;2023-01-26T02:28:28;101573.55;;;15.80;15.83
64115;BME280;62188;35.640;139.748;2023-01-26T02:30:55;101555.55;;;16.09;15.67
64115;BME280;62188;35.640;139.748;2023-01-26T02:33:20;101553.89;;;16.49;15.55
64115;BME280;62188;35.640;139.748;2023-01-26T02:35:45;101562.80;;;16.91;15.35
64115;BME280;62188;35.640;139.748;2023-01-26T02:38:10;101557.80;;;17.02;14.88
64115;BME280;62188;35.640;139.748;2023-01-26T02:40:39;101539.80;;;16.43;15.34
64115;BME280;62188;35.640;139.748;2023-01-26T02:43:01;101525.45;;;16.60;15.26
64115;BME280;62188;35.640;139.748;2023-01-26T02:45:27;101525.91;;;16.89;15.13
64115;BME280;62188;35.640;139.748;2023-01-26T02:47:52;101530.25;;;16.69;14.96
64115;BME280;62188;35.640;139.748;2023-01-26T02:50:18;101533.05;;;16.96;15.03
64115;BME280;62188;35.640;139.748;2023-01-26T02:52:44;101523.88;;;16.68;14.82
64115;BME280;62188;35.640;139.748;2023-01-26T02:55:10;101516.92;;;16.86;14.94
64115;BME280;62188;35.640;139.748;2023-01-26T02:57:35;101522.98;;;17.31;14.85
64115;BME280;62188;35.640;139.748;2023-01-26T03:00:07;101525.81;;;17.17;15.08
64115;BME280;62188;35.640;139.748;2023-01-26T03:02:26;101536.44;;;17.35;15.16
64115;BME280;62188;35.640;139.748;2023-01-26T03:04:51;101524.09;;;17.08;14.99
64115;BME280;62188;35.640;139.748;2023-01-26T03:07:18;101512.18;;;16.98;14.99
64115;BME280;62188;35.640;139.748;2023-01-26T03:09:43;101503.02;;;17.26;14.88
64115;BME280;62188;35.640;139.748;2023-01-26T03:12:08;101474.46;;;16.96;15.10
64115;BME280;62188;35.640;139.748;2023-01-26T03:14:34;101478.17;;;16.93;15.15
64115;BME280;62188;35.640;139.748;2023-01-26T03:17:00;101458.57;;;16.56;15.23
64115;BME280;62188;35.640;139.748;2023-01-26T03:19:25;101451.73;;;16.74;15.55
64115;BME280;62188;35.640;139.748;2023-01-26T03:21:51;101466.76;;;16.30;15.77
64115;BME280;62188;35.640;139.748;2023-01-26T03:24:17;101460.42;;;16.42;15.93
64115;BME280;62188;35.640;139.748;2023-01-26T03:26:42;101452.30;;;16.59;15.93
64115;BME280;62188;35.640;139.748;2023-01-26T03:29:08;101452.26;;;16.53;16.05
64115;BME280;62188;35.640;139.748;2023-01-26T03:31:33;101466.42;;;16.50;16.27
64115;BME280;62188;35.640;139.748;2023-01-26T03:33:59;101456.81;;;16.11;16.81
64115;BME280;62188;35.640;139.748;2023-01-26T03:36:25;101452.86;;;16.27;16.78
64115;BME280;62188;35.640;139.748;2023-01-26T03:38:50;101444.48;;;16.27;16.77
64115;BME280;62188;35.640;139.748;2023-01-26T03:41:16;101424.28;;;16.28;16.71
64115;BME280;62188;35.640;139.748;2023-01-26T03:43:42;101425.65;;;16.71;16.58
64115;BME280;62188;35.640;139.748;2023-01-26T03:46:08;101421.53;;;16.82;16.58
64115;BME280;62188;35.640;139.748;2023-01-26T03:48:33;101414.47;;;16.90;16.61
64115;BME280;62188;35.640;139.748;2023-01-26T03:50:59;101415.01;;;17.26;16.44
64115;BME280;62188;35.640;139.748;2023-01-26T03:53:25;101413.14;;;17.40;16.21
64115;BME280;62188;35.640;139.748;2023-01-26T03:55:50;101408.46;;;17.74;16.20
64115;BME280;62188;35.640;139.748;2023-01-26T03:58:15;101414.31;;;17.92;16.16
64115;BME280;62188;35.640;139.748;2023-01-26T04:00:41;101407.05;;;17.60;16.15
64115;BME280;62188;35.640;139.748;2023-01-26T04:03:06;101404.49;;;17.76;16.16
64115;BME280;62188;35.640;139.748;2023-01-26T04:05:32;101413.16;;;17.22;15.78
64115;BME280;62188;35.640;139.748;2023-01-26T04:08:02;101404.99;;;16.61;15.95
64115;BME280;62188;35.640;139.748;2023-01-26T04:10:24;101401.92;;;15.80;15.78
64115;BME280;62188;35.640;139.748;2023-01-26T04:12:49;101397.71;;;15.90;16.23
64115;BME280;62188;35.640;139.748;2023-01-26T04:15:15;101393.53;;;15.22;18.54
64115;BME280;62188;35.640;139.748;2023-01-26T04:17:40;101389.56;;;14.97;19.02
64115;BME280;62188;35.640;139.748;2023-01-26T04:20:07;101388.22;;;14.72;19.33
64115;BME280;62188;35.640;139.748;2023-01-26T04:22:35;101391.51;;;14.07;19.86
64115;BME280;62188;35.640;139.748;2023-01-26T04:24:57;101386.56;;;14.10;20.27
64115;BME280;62188;35.640;139.748;2023-01-26T04:27:23;101376.09;;;14.41;20.11
64115;BME280;62188;35.640;139.748;2023-01-26T04:29:48;101375.23;;;14.68;19.92
64115;BME280;62188;35.640;139.748;2023-01-26T04:32:14;101380.03;;;15.11;19.85
64115;BME280;62188;35.640;139.748;2023-01-26T04:34:39;101372.63;;;15.48;19.24
64115;BME280;62188;35.640;139.748;2023-01-26T04:37:05;101373.22;;;15.47;19.26
64115;BME280;62188;35.640;139.748;2023-01-26T04:39:31;101368.51;;;15.96;18.65
64115;BME280;62188;35.640;139.748;2023-01-26T04:41:57;101363.64;;;16.43;17.77
64115;BME280;62188;35.640;139.748;2023-01-26T04:44:22;101360.76;;;16.42;17.55
64115;BME280;62188;35.640;139.748;2023-01-26T04:46:48;101358.04;;;16.76;16.97
64115;BME280;62188;35.640;139.748;2023-01-26T04:49:14;101351.11;;;16.90;17.29
64115;BME280;62188;35.640;139.748;2023-01-26T04:51:39;101356.63;;;16.59;17.38
64115;BME280;62188;35.640;139.748;2023-01-26T04:54:05;101359.80;;;16.26;17.66
64115;BME280;62188;35.640;139.748;2023-01-26T04:56:32;101360.26;;;16.02;18.26
64115;BME280;62188;35.640;139.748;2023-01-26T04:58:59;101368.80;;;14.81;18.33
64115;BME280;62188;35.640;139.748;2023-01-26T05:01:22;101369.97;;;14.65;18.50
64115;BME280;62188;35.640;139.748;2023-01-26T05:03:47;101368.11;;;13.98;18.76
64115;BME280;62188;35.640;139.748;2023-01-26T05:06:13;101370.43;;;13.82;18.83
64115;BME280;62188;35.640;139.748;2023-01-26T05:08:39;101368.26;;;13.40;19.30
64115;BME280;62188;35.640;139.748;2023-01-26T05:11:05;101367.21;;;13.23;19.75
64115;BME280;62188;35.640;139.748;2023-01-26T05:13:30;101360.48;;;12.87;20.90
64115;BME280;62188;35.640;139.748;2023-01-26T05:15:56;101370.18;;;12.73;20.88
64115;BME280;62188;35.640;139.748;2023-01-26T05:18:22;101375.03;;;12.07;21.31
64115;BME280;62188;35.640;139.748;2023-01-26T05:20:47;101376.71;;;12.33;21.34
64115;BME280;62188;35.640;139.748;2023-01-26T05:23:13;101378.87;;;12.11;21.73
64115;BME280;62188;35.640;139.748;2023-01-26T05:25:38;101376.23;;;12.30;21.91
64115;BME280;62188;35.640;139.748;2023-01-26T05:28:05;101370.61;;;12.23;21.96
64115;BME280;62188;35.640;139.748;2023-01-26T05:30:30;101367.52;;;12.09;22.14
64115;BME280;62188;35.640;139.748;2023-01-26T05:33:01;101373.80;;;11.66;22.18
64115;BME280;62188;35.640;139.748;2023-01-26T05:35:22;101375.41;;;11.58;22.36
64115;BME280;62188;35.640;139.748;2023-01-26T05:37:47;101369.75;;;11.55;22.30
64115;BME280;62188;35.640;139.748;2023-01-26T05:40:13;101372.11;;;11.56;22.46
64115;BME280;62188;35.640;139.748;2023-01-26T05:42:39;101369.72;;;11.50;22.28
64115;BME280;62188;35.640;139.748;2023-01-26T05:45:06;101360.83;;;11.58;22.32
64115;BME280;62188;35.640;139.748;2023-01-26T05:47:30;101358.37;;;11.63;22.64
64115;BME280;62188;35.640;139.748;2023-01-26T05:49:56;101346.71;;;11.15;23.07
64115;BME280;62188;35.640;139.748;2023-01-26T05:52:22;101345.14;;;11.10;23.06
64115;BME280;62188;35.640;139.748;2023-01-26T05:54:48;101342.05;;;11.12;23.05
64115;BME280;62188;35.640;139.748;2023-01-26T05:57:13;101344.23;;;11.28;23.13
64115;BME280;62188;35.640;139.748;2023-01-26T05:59:39;101339.36;;;11.20;23.12
64115;BME280;62188;35.640;139.748;2023-01-26T06:02:05;101348.23;;;11.15;23.10
64115;BME280;62188;35.640;139.748;2023-01-26T06:04:31;101333.30;;;11.05;22.71
64115;BME280;62188;35.640;139.748;2023-01-26T06:06:58;101340.11;;;11.07;22.66
64115;BME280;62188;35.640;139.748;2023-01-26T06:09:22;101350.16;;;10.82;22.52
64115;BME280;62188;35.640;139.748;2023-01-26T06:11:48;101332.89;;;10.76;22.88
64115;BME280;62188;35.640;139.748;2023-01-26T06:14:14;101327.72;;;10.84;23.37
64115;BME280;62188;35.640;139.748;2023-01-26T06:16:39;101330.56;;;11.01;23.89
64115;BME280;62188;35.640;139.748;2023-01-26T06:19:05;101321.63;;;11.19;24.10
64115;BME280;62188;35.640;139.748;2023-01-26T06:21:32;101332.35;;;11.23;23.90
64115;BME280;62188;35.640;139.748;2023-01-26T06:23:56;101329.74;;;10.89;23.82
64115;BME280;62188;35.640;139.748;2023-01-26T06:26:23;101331.83;;;11.06;23.76
64115;BME280;62188;35.640;139.748;2023-01-26T06:28:48;101334.51;;;10.84;23.25
64115;BME280;62188;35.640;139.748;2023-01-26T06:31:14;101336.91;;;10.92;23.43
64115;BME280;62188;35.640;139.748;2023-01-26T06:33:40;101338.33;;;11.29;23.41
64115;BME280;62188;35.640;139.748;2023-01-26T06:36:07;101337.09;;;11.06;23.36
64115;BME280;62188;35.640;139.748;2023-01-26T06:38:31;101326.78;;;10.88;23.19
64115;BME280;62188;35.640;139.748;2023-01-26T06:41:00;101323.84;;;10.97;23.68
64115;BME280;62188;35.640;139.748;2023-01-26T06:43:23;101332.44;;;11.06;23.68
64115;BME280;62188;35.640;139.748;2023-01-26T06:45:48;101334.61;;;11.06;23.05
64115;BME280;62188;35.640;139.748;2023-01-26T06:48:13;101332.46;;;11.01;22.54
64115;BME280;62188;35.640;139.748;2023-01-26T06:50:40;101327.64;;;10.99;22.62
64115;BME280;62188;35.640;139.748;2023-01-26T06:55:35;101323.88;;;11.06;22.48
64115;BME280;62188;35.640;139.748;2023-01-26T06:57:57;101324.33;;;10.83;22.58
64115;BME280;62188;35.640;139.748;2023-01-26T07:00:23;101330.09;;;10.76;22.93
64115;BME280;62188;35.640;139.748;2023-01-26T07:02:48;101333.61;;;10.99;23.18
64115;BME280;62188;35.640;139.748;2023-01-26T07:05:14;101339.52;;;10.92;22.87
64115;BME280;62188;35.640;139.748;2023-01-26T07:07:40;101338.10;;;11.03;22.23
64115;BME280;62188;35.640;139.748;2023-01-26T07:10:06;101342.55;;;11.24;22.48
64115;BME280;62188;35.640;139.748;2023-01-26T07:12:37;101337.51;;;11.02;22.64
64115;BME280;62188;35.640;139.748;2023-01-26T07:14:57;101344.49;;;11.03;22.97
64115;BME280;62188;35.640;139.748;2023-01-26T07:17:23;101352.05;;;10.92;23.38
64115;BME280;62188;35.640;139.748;2023-01-26T07:19:50;101358.36;;;11.01;23.54
64115;BME280;62188;35.640;139.748;2023-01-26T07:22:14;101363.58;;;10.98;23.60
64115;BME280;62188;35.640;139.748;2023-01-26T07:24:40;101366.96;;;10.95;22.77
64115;BME280;62188;35.640;139.748;2023-01-26T07:27:06;101389.93;;;10.89;22.30
64115;BME280;62188;35.640;139.748;2023-01-26T07:29:31;101402.03;;;10.95;22.11
64115;BME280;62188;35.640;139.748;2023-01-26T07:31:57;101394.72;;;11.24;21.85
64115;BME280;62188;35.640;139.748;2023-01-26T07:34:23;101388.09;;;11.07;21.76
64115;BME280;62188;35.640;139.748;2023-01-26T07:36:51;101376.51;;;11.19;21.84
64115;BME280;62188;35.640;139.748;2023-01-26T07:39:14;101370.57;;;11.29;21.80
64115;BME280;62188;35.640;139.748;2023-01-26T07:41:40;101378.22;;;11.17;21.64
64115;BME280;62188;35.640;139.748;2023-01-26T07:44:10;101386.57;;;11.01;21.64
64115;BME280;62188;35.640;139.748;2023-01-26T07:46:31;101382.59;;;11.11;21.48
64115;BME280;62188;35.640;139.748;2023-01-26T07:48:57;101383.90;;;11.16;21.49
64115;BME280;62188;35.640;139.748;2023-01-26T07:51:23;101388.81;;;11.29;21.25
64115;BME280;62188;35.640;139.748;2023-01-26T07:53:49;101388.05;;;11.35;21.10
64115;BME280;62188;35.640;139.748;2023-01-26T07:56:15;101380.15;;;11.41;21.05
64115;BME280;62188;35.640;139.748;2023-01-26T07:58:40;101375.91;;;11.46;20.95
64115;BME280;62188;35.640;139.748;2023-01-26T08:01:09;101374.38;;;11.26;20.90
64115;BME280;62188;35.640;139.748;2023-01-26T08:03:32;101382.46;;;11.12;20.49
64115;BME280;62188;35.640;139.748;2023-01-26T08:05:57;101386.53;;;11.37;20.34
64115;BME280;62188;35.640;139.748;2023-01-26T08:08:24;101398.85;;;11.25;20.02
64115;BME280;62188;35.640;139.748;2023-01-26T08:10:49;101415.61;;;11.29;19.86
64115;BME280;62188;35.640;139.748;2023-01-26T08:13:14;101416.51;;;11.25;19.67
64115;BME280;62188;35.640;139.748;2023-01-26T08:15:41;101409.50;;;11.14;19.56
64115;BME280;62188;35.640;139.748;2023-01-26T08:18:06;101402.21;;;11.07;19.44
64115;BME280;62188;35.640;139.748;2023-01-26T08:20:32;101386.49;;;11.03;19.43
64115;BME280;62188;35.640;139.748;2023-01-26T08:22:58;101381.16;;;11.03;19.37
64115;BME280;62188;35.640;139.748;2023-01-26T08:25:23;101372.35;;;11.10;19.39
64115;BME280;62188;35.640;139.748;2023-01-26T08:27:49;101379.85;;;10.99;19.36
64115;BME280;62188;35.640;139.748;2023-01-26T08:30:16;101383.63;;;11.08;19.68
64115;BME280;62188;35.640;139.748;2023-01-26T08:32:41;101373.88;;;10.84;19.33
64115;BME280;62188;35.640;139.748;2023-01-26T08:35:08;101378.24;;;11.11;19.45
64115;BME280;62188;35.640;139.748;2023-01-26T08:37:33;101393.51;;;11.22;19.68
64115;BME280;62188;35.640;139.748;2023-01-26T08:39:58;101398.76;;;11.35;19.66
64115;BME280;62188;35.640;139.748;2023-01-26T08:42:24;101404.33;;;11.15;19.44
64115;BME280;62188;35.640;139.748;2023-01-26T08:44:49;101401.27;;;11.20;19.44
64115;BME280;62188;35.640;139.748;2023-01-26T08:47:15;101399.13;;;11.26;19.49
64115;BME280;62188;35.640;139.748;2023-01-26T08:49:41;101395.15;;;11.55;19.47
64115;BME280;62188;35.640;139.748;2023-01-26T08:52:07;101396.85;;;11.58;19.47
64115;BME280;62188;35.640;139.748;2023-01-26T08:54:33;101396.66;;;11.36;19.60
64115;BME280;62188;35.640;139.748;2023-01-26T08:56:58;101394.39;;;11.43;19.74
64115;BME280;62188;35.640;139.748;2023-01-26T08:59:24;101392.73;;;11.23;19.90
64115;BME280;62188;35.640;139.748;2023-01-26T09:01:49;101384.02;;;11.53;19.97
64115;BME280;62188;35.640;139.748;2023-01-26T09:04:15;101392.35;;;11.56;19.99
64115;BME280;62188;35.640;139.748;2023-01-26T09:06:41;101405.62;;;11.82;20.64
64115;BME280;62188;35.640;139.748;2023-01-26T09:09:07;101403.93;;;11.67;20.91
64115;BME280;62188;35.640;139.748;2023-01-26T09:11:32;101404.04;;;11.46;20.52
64115;BME280;62188;35.640;139.748;2023-01-26T09:13:58;101404.61;;;11.65;20.63
64115;BME280;62188;35.640;139.748;2023-01-26T09:16:24;101408.45;;;11.65;20.87
64115;BME280;62188;35.640;139.748;2023-01-26T09:18:50;101401.17;;;11.69;20.84
64115;BME280;62188;35.640;139.748;2023-01-26T09:21:15;101399.35;;;11.76;21.15
64115;BME280;62188;35.640;139.748;2023-01-26T09:23:41;101411.69;;;11.86;21.24
64115;BME280;62188;35.640;139.748;2023-01-26T09:26:08;101422.64;;;11.63;21.08
64115;BME280;62188;35.640;139.748;2023-01-26T09:28:33;101418.85;;;11.91;21.33
64115;BME280;62188;35.640;139.748;2023-01-26T09:31:03;101413.38;;;11.98;21.47
64115;BME280;62188;35.640;139.748;2023-01-26T09:33:24;101416.13;;;12.00;21.74
64115;BME280;62188;35.640;139.748;2023-01-26T09:35:50;101427.34;;;11.79;21.66
64115;BME280;62188;35.640;139.748;2023-01-26T09:38:16;101425.05;;;11.83;21.66
64115;BME280;62188;35.640;139.748;2023-01-26T09:40:53;101422.48;;;11.86;21.64
64115;BME280;62188;35.640;139.748;2023-01-26T09:43:19;101417.55;;;12.09;21.46
64115;BME280;62188;35.640;139.748;2023-01-26T09:45:38;101414.22;;;11.80;21.61
64115;BME280;62188;35.640;139.748;2023-01-26T09:48:08;101414.99;;;11.79;21.55
64115;BME280;62188;35.640;139.748;2023-01-26T09:50:28;101412.78;;;11.82;21.66
64115;BME280;62188;35.640;139.748;2023-01-26T09:52:53;101428.55;;;11.63;22.14
64115;BME280;62188;35.640;139.748;2023-01-26T09:55:20;101432.26;;;11.88;21.67
64115;BME280;62188;35.640;139.748;2023-01-26T09:57:46;101442.42;;;11.87;21.37
64115;BME280;62188;35.640;139.748;2023-01-26T10:00:13;101445.15;;;12.04;21.39
64115;BME280;62188;35.640;139.748;2023-01-26T10:02:44;101444.87;;;11.74;21.11
64115;BME280;62188;35.640;139.748;2023-01-26T10:05:03;101453.19;;;11.72;21.53
64115;BME280;62188;35.640;139.748;2023-01-26T10:07:24;101463.90;;;11.77;21.45
64115;BME280;62188;35.640;139.748;2023-01-26T10:09:51;101479.50;;;11.82;22.04
64115;BME280;62188;35.640;139.748;2023-01-26T10:12:20;101469.56;;;11.83;21.68
64115;BME280;62188;35.640;139.748;2023-01-26T10:14:45;101460.66;;;11.79;21.79
64115;BME280;62188;35.640;139.748;2023-01-26T10:17:13;101461.26;;;11.83;21.97
64115;BME280;62188;35.640;139.748;2023-01-26T10:19:38;101467.33;;;11.83;22.03
64115;BME280;62188;35.640;139.748;2023-01-26T10:22:03;101478.87;;;12.08;22.05
64115;BME280;62188;35.640;139.748;2023-01-26T10:24:24;101469.77;;;11.84;22.14
64115;BME280;62188;35.640;139.748;2023-01-26T10:26:55;101456.75;;;11.87;22.44
64115;BME280;62188;35.640;139.748;2023-01-26T10:29:15;101430.82;;;11.87;22.48
64115;BME280;62188;35.640;139.748;2023-01-26T10:31:41;101431.74;;;11.92;22.80
64115;BME280;62188;35.640;139.748;2023-01-26T10:34:13;101433.56;;;12.16;22.56
64115;BME280;62188;35.640;139.748;2023-01-26T10:36:33;101422.32;;;11.93;22.65
64115;BME280;62188;35.640;139.748;2023-01-26T10:39:03;101414.06;;;11.93;22.50
64115;BME280;62188;35.640;139.748;2023-01-26T10:41:26;101407.53;;;11.94;22.47
64115;BME280;62188;35.640;139.748;2023-01-26T10:43:53;101416.27;;;11.93;22.68
64115;BME280;62188;35.640;139.748;2023-01-26T10:46:23;101422.87;;;11.93;22.72
64115;BME280;62188;35.640;139.748;2023-01-26T10:48:48;101420.75;;;12.17;22.84
64115;BME280;62188;35.640;139.748;2023-01-26T10:51:14;101419.29;;;11.95;22.67
64115;BME280;62188;35.640;139.748;2023-01-26T10:53:32;101417.83;;;11.95;22.82
64115;BME280;62188;35.640;139.748;2023-01-26T10:56:00;101422.34;;;12.02;24.22
64115;BME280;62188;35.640;139.748;2023-01-26T10:58:40;101423.26;;;12.26;27.12
64115;BME280;62188;35.640;139.748;2023-01-26T11:00:54;101413.62;;;11.94;26.69
64115;BME280;62188;35.640;139.748;2023-01-26T11:03:18;101413.46;;;11.93;27.53
64115;BME280;62188;35.640;139.748;2023-01-26T11:05:41;101397.38;;;11.92;26.99
64115;BME280;62188;35.640;139.748;2023-01-26T11:10:33;101393.27;;;11.95;27.52
64115;BME280;62188;35.640;139.748;2023-01-26T11:13:11;101405.29;;;11.95;27.68
64115;BME280;62188;35.640;139.748;2023-01-26T11:15:24;101414.00;;;11.94;27.71
64115;BME280;62188;35.640;139.748;2023-01-26T11:17:54;101420.93;;;11.95;27.25
64115;BME280;62188;35.640;139.748;2023-01-26T11:22:46;101415.60;;;12.18;27.74
64115;BME280;62188;35.640;139.748;2023-01-26T11:25:16;101415.07;;;11.96;29.19
64115;BME280;62188;35.640;139.748;2023-01-26T11:27:40;101417.37;;;12.05;31.49
64115;BME280;62188;35.640;139.748;2023-01-26T11:32:27;101424.92;;;11.95;32.34
64115;BME280;62188;35.640;139.748;2023-01-26T11:34:56;101423.59;;;12.10;34.03
64115;BME280;62188;35.640;139.748;2023-01-26T11:37:32;101420.70;;;12.22;34.28
64115;BME280;62188;35.640;139.748;2023-01-26T11:39:46;101420.63;;;12.50;31.47
64115;BME280;62188;35.640;139.748;2023-01-26T11:42:15;101424.86;;;12.31;28.95
64115;BME280;62188;35.640;139.748;2023-01-26T11:47:06;101433.97;;;12.23;24.85
64115;BME280;62188;35.640;139.748;2023-01-26T11:49:34;101436.51;;;12.21;24.91
64115;BME280;62188;35.640;139.748;2023-01-26T11:51:57;101436.35;;;12.14;24.14
64115;BME280;62188;35.640;139.748;2023-01-26T11:56:47;101445.28;;;11.78;24.36
64115;BME280;62188;35.640;139.748;2023-01-26T11:59:08;101438.71;;;12.01;24.38
64115;BME280;62188;35.640;139.748;2023-01-26T12:01:33;101420.42;;;11.94;23.55
64115;BME280;62188;35.640;139.748;2023-01-26T12:03:56;101397.67;;;11.83;22.71
64115;BME280;62188;35.640;139.748;2023-01-26T12:06:27;101392.15;;;11.71;22.45
64115;BME280;62188;35.640;139.748;2023-01-26T12:08:51;101380.02;;;11.74;23.38
64115;BME280;62188;35.640;139.748;2023-01-26T12:11:18;101374.12;;;11.78;23.87
64115;BME280;62188;35.640;139.748;2023-01-26T12:13:41;101370.30;;;11.70;22.64
64115;BME280;62188;35.640;139.748;2023-01-26T12:16:12;101366.90;;;11.67;22.58
64115;BME280;62188;35.640;139.748;2023-01-26T12:18:34;101365.35;;;11.68;22.68
64115;BME280;62188;35.640;139.748;2023-01-26T12:20:59;101358.51;;;11.65;21.76
64115;BME280;62188;35.640;139.748;2023-01-26T12:23:28;101355.89;;;11.63;22.49
64115;BME280;62188;35.640;139.748;2023-01-26T12:25:49;101368.41;;;11.67;22.78
64115;BME280;62188;35.640;139.748;2023-01-26T12:28:18;101371.00;;;11.90;22.97
64115;BME280;62188;35.640;139.748;2023-01-26T12:30:45;101378.50;;;11.71;23.50
64115;BME280;62188;35.640;139.748;2023-01-26T12:33:03;101375.50;;;11.71;23.15
64115;BME280;62188;35.640;139.748;2023-01-26T12:35:38;101376.94;;;11.67;22.66
64115;BME280;62188;35.640;139.748;2023-01-26T12:37:59;101381.46;;;11.94;22.59